Time;durP1;ratioP1;P1;durP2;ratioP2;P2;SDS_P1;SDS_P2;PMS_P1;PMS_P2;Temp;Humidity;BMP_temperature;BMP_pressure;BME280_temperature;BME280_humidity;BME280_pressure;Samples;Min_cycle;Max_cycle;Signal;HPM_P1;HPM_P2
2023/09/09 00:00:48;;;;;;;;;18.50;17.75;;;;;27.45;43.17;100886.59;5075802;27;45470;-67
2023/09/09 00:03:14;;;;;;;;;18.75;16.00;;;;;27.43;43.15;100885.88;5077324;28;45493;-67
2023/09/09 00:05:39;;;;;;;;;19.00;16.25;;;;;27.41;43.23;100895.94;5066790;28;45538;-66
2023/09/09 00:08:05;;;;;;;;;23.50;15.75;;;;;27.40;43.08;100888.03;5088768;27;45480;-67
2023/09/09 00:10:34;;;;;;;;;21.25;16.25;;;;;27.38;43.46;100888.16;5069497;28;58521;-67
2023/09/09 00:12:59;;;;;;;;;15.75;14.00;;;;;27.36;43.47;100894.69;5056558;28;45926;-66
2023/09/09 00:15:25;;;;;;;;;14.75;13.00;;;;;27.35;43.59;100890.31;5079307;28;49119;-67
2023/09/09 00:17:51;;;;;;;;;18.25;12.00;;;;;27.34;43.38;100893.97;5045666;27;45293;-67
2023/09/09 00:20:16;;;;;;;;;14.25;10.75;;;;;27.33;43.24;100892.28;5059206;28;45494;-66
2023/09/09 00:22:42;;;;;;;;;16.75;14.75;;;;;27.31;42.87;100888.91;5074175;28;45886;-66
2023/09/09 00:25:07;;;;;;;;;16.50;14.25;;;;;27.33;43.39;100894.97;5066824;27;45598;-67
2023/09/09 00:27:32;;;;;;;;;15.50;12.75;;;;;27.28;43.21;100882.81;5073216;27;45351;-67
2023/09/09 00:29:58;;;;;;;;;14.50;12.25;;;;;27.30;43.44;100887.22;5068915;27;73263;-66
2023/09/09 00:32:23;;;;;;;;;11.25;10.00;;;;;27.28;43.17;100884.66;5083968;27;50471;-66
2023/09/09 00:34:49;;;;;;;;;11.00;10.00;;;;;27.27;42.99;100875.75;5073903;27;45388;-67
2023/09/09 00:37:14;;;;;;;;;10.75;9.00;;;;;27.27;43.09;100883.00;5078331;27;45673;-65
2023/09/09 00:39:39;;;;;;;;;10.00;9.50;;;;;27.26;43.56;100881.25;5073800;28;45482;-65
2023/09/09 00:42:05;;;;;;;;;12.00;9.50;;;;;27.25;43.43;100883.09;5068968;27;45410;-66
2023/09/09 00:44:30;;;;;;;;;12.75;11.75;;;;;27.24;43.11;100876.00;5073312;28;63102;-67
2023/09/09 00:46:57;;;;;;;;;15.75;13.00;;;;;27.25;43.00;100880.41;5076683;27;45294;-67
2023/09/09 00:49:23;;;;;;;;;15.25;14.50;;;;;27.24;43.32;100884.06;5068504;27;45431;-66
2023/09/09 00:51:48;;;;;;;;;24.75;20.75;;;;;27.23;43.71;100877.03;5074707;28;64713;-67
2023/09/09 00:54:14;;;;;;;;;13.00;12.75;;;;;27.22;43.34;100883.38;5069342;28;61141;-67
2023/09/09 00:56:40;;;;;;;;;19.00;15.00;;;;;27.20;43.73;100874.63;5076920;27;45375;-66
2023/09/09 00:59:05;;;;;;;;;16.75;13.00;;;;;27.18;43.94;100876.63;5076758;27;45652;-67
2023/09/09 01:01:32;;;;;;;;;17.00;14.50;;;;;27.17;43.92;100880.28;5052469;28;60225;-67
2023/09/09 01:03:57;;;;;;;;;14.75;12.25;;;;;27.17;43.88;100882.13;5073364;27;45309;-67
2023/09/09 01:06:23;;;;;;;;;13.00;13.00;;;;;27.13;43.62;100886.09;5070608;27;45498;-67
2023/09/09 01:08:49;;;;;;;;;15.75;11.25;;;;;27.13;43.86;100886.09;5079276;28;45630;-67
2023/09/09 01:11:14;;;;;;;;;12.25;11.25;;;;;27.10;44.16;100884.53;5074338;27;45525;-66
2023/09/09 01:13:39;;;;;;;;;17.50;14.25;;;;;27.08;43.85;100884.69;5076196;27;45383;-67
2023/09/09 01:16:05;;;;;;;;;17.50;12.75;;;;;27.05;44.00;100886.81;5050285;28;64636;-67
2023/09/09 01:18:33;;;;;;;;;15.25;14.25;;;;;27.03;43.81;100889.66;5070053;27;45379;-67
2023/09/09 01:21:09;;;;;;;;;16.00;12.25;;;;;27.00;44.63;100889.09;5073825;28;45621;-66
2023/09/09 01:23:35;;;;;;;;;17.25;12.00;;;;;26.98;44.14;100883.88;5061009;27;45454;-67
2023/09/09 01:26:01;;;;;;;;;18.50;14.75;;;;;26.96;44.57;100885.00;5086587;27;45423;-66
2023/09/09 01:28:26;;;;;;;;;16.75;16.00;;;;;26.94;44.66;100884.31;5065459;28;45398;-66
2023/09/09 01:30:51;;;;;;;;;17.50;13.00;;;;;26.92;44.57;100880.94;5076489;27;74655;-66
2023/09/09 01:33:17;;;;;;;;;11.25;10.00;;;;;26.90;44.88;100879.22;5071525;27;71897;-66
2023/09/09 01:35:43;;;;;;;;;10.00;9.00;;;;;26.88;44.44;100891.94;5076639;27;64412;-66
2023/09/09 01:38:09;;;;;;;;;13.75;11.00;;;;;26.85;44.45;100886.88;5064282;28;45394;-67
2023/09/09 01:40:34;;;;;;;;;11.75;11.75;;;;;26.84;44.65;100890.56;5071044;28;75347;-67
2023/09/09 01:42:59;;;;;;;;;15.50;13.50;;;;;26.83;44.97;100893.38;5075036;27;68467;-67
2023/09/09 01:45:25;;;;;;;;;12.00;9.75;;;;;26.80;44.98;100889.13;5075073;27;63217;-67
2023/09/09 01:47:50;;;;;;;;;11.50;9.75;;;;;26.76;44.44;100887.72;5069525;28;45390;-67
2023/09/09 01:50:15;;;;;;;;;11.00;9.50;;;;;26.76;44.93;100885.03;5078070;27;68381;-67
2023/09/09 01:52:41;;;;;;;;;10.00;10.00;;;;;26.75;45.16;100888.72;5075874;27;45340;-67
2023/09/09 01:55:06;;;;;;;;;12.75;10.00;;;;;26.74;45.29;100884.34;5083287;27;46054;-67
2023/09/09 01:57:32;;;;;;;;;12.50;9.75;;;;;26.71;45.31;100887.31;5070177;28;45439;-67
2023/09/09 01:59:58;;;;;;;;;12.75;11.00;;;;;26.69;44.82;100883.91;5079963;27;74315;-68
2023/09/09 02:02:23;;;;;;;;;14.75;10.25;;;;;26.67;45.04;100885.91;5075974;27;45760;-67
2023/09/09 02:04:48;;;;;;;;;13.00;10.50;;;;;26.64;44.97;100883.50;5069839;27;68741;-67
2023/09/09 02:07:14;;;;;;;;;7.50;6.00;;;;;26.62;44.87;100885.50;5071807;27;45513;-67
2023/09/09 02:09:39;;;;;;;;;13.25;9.25;;;;;26.60;45.33;100890.13;5070096;27;69458;-66
2023/09/09 02:12:05;;;;;;;;;11.75;11.00;;;;;26.58;45.15;100882.22;5094390;27;74522;-67
2023/09/09 02:14:31;;;;;;;;;15.00;10.00;;;;;26.55;45.45;100882.47;5075356;27;45417;-67
2023/09/09 02:16:56;;;;;;;;;11.25;10.25;;;;;26.52;45.04;100883.63;5076773;28;45496;-67
2023/09/09 02:19:21;;;;;;;;;13.00;9.50;;;;;26.50;45.27;100885.56;5069576;27;74942;-67
2023/09/09 02:21:47;;;;;;;;;12.00;12.00;;;;;26.48;45.72;100878.66;5075027;28;45274;-67
2023/09/09 02:24:12;;;;;;;;;19.00;11.50;;;;;26.44;45.80;100880.78;5076787;28;55175;-67
2023/09/09 02:26:37;;;;;;;;;12.00;9.50;;;;;26.45;45.85;100878.94;5071733;27;72163;-67
2023/09/09 02:29:03;;;;;;;;;10.50;10.50;;;;;26.43;45.32;100880.94;5068851;27;69317;-66
2023/09/09 02:31:28;;;;;;;;;13.25;11.25;;;;;26.40;45.68;100870.47;5071860;27;66349;-66
2023/09/09 02:33:53;;;;;;;;;13.75;10.75;;;;;26.40;45.52;100878.53;5075276;27;64378;-67
2023/09/09 02:36:19;;;;;;;;;12.00;12.00;;;;;26.39;45.53;100882.22;5075410;27;45501;-66
2023/09/09 02:38:44;;;;;;;;;12.25;11.25;;;;;26.36;46.20;100872.59;5078151;27;64389;-66
2023/09/09 02:41:10;;;;;;;;;13.50;9.75;;;;;26.36;45.68;100874.44;5071437;28;71208;-67
2023/09/09 02:43:36;;;;;;;;;13.00;11.00;;;;;26.34;45.95;100869.19;5076676;27;45427;-66
2023/09/09 02:46:03;;;;;;;;;10.50;10.50;;;;;26.31;46.25;100877.53;5074451;28;46240;-67
2023/09/09 02:48:28;;;;;;;;;15.75;10.25;;;;;26.29;46.20;100876.81;5071616;27;45437;-67
2023/09/09 02:50:54;;;;;;;;;10.00;9.00;;;;;26.28;46.05;100872.47;5080365;27;45389;-66
2023/09/09 02:53:19;;;;;;;;;13.75;11.50;;;;;26.27;46.14;100876.13;5070492;27;65623;-66
2023/09/09 02:55:45;;;;;;;;;14.50;9.25;;;;;26.24;46.34;100879.94;5079933;27;45445;-67
2023/09/09 02:58:13;;;;;;;;;11.00;9.75;;;;;26.24;46.21;100874.59;5076150;27;45291;-67
2023/09/09 03:00:39;;;;;;;;;9.00;9.00;;;;;26.21;46.56;100874.00;5078214;27;45476;-67
2023/09/09 03:03:05;;;;;;;;;14.75;9.75;;;;;26.19;46.17;100871.47;5077355;27;62668;-67
2023/09/09 03:05:34;;;;;;;;;13.75;10.00;;;;;26.17;46.58;100870.75;5075901;27;45465;-67
2023/09/09 03:07:59;;;;;;;;;6.75;5.75;;;;;26.17;46.46;100876.13;5072174;28;47195;-66
2023/09/09 03:10:25;;;;;;;;;13.75;11.00;;;;;26.16;46.21;100879.78;5079876;27;45238;-66
2023/09/09 03:12:50;;;;;;;;;10.75;9.75;;;;;26.14;46.57;100876.41;5076962;27;67914;-66
2023/09/09 03:15:16;;;;;;;;;8.75;8.25;;;;;26.13;46.60;100877.38;5071887;27;67588;-66
2023/09/09 03:17:41;;;;;;;;;11.00;10.75;;;;;26.11;46.82;100873.97;5077263;27;45607;-66
2023/09/09 03:20:08;;;;;;;;;13.25;10.00;;;;;26.08;46.62;100869.75;5074792;27;59027;-67
2023/09/09 03:22:34;;;;;;;;;16.25;10.25;;;;;26.05;46.63;100870.03;5076485;27;45654;-67
2023/09/09 03:24:59;;;;;;;;;10.75;8.50;;;;;26.04;46.75;100871.00;5065971;27;45451;-66
2023/09/09 03:27:24;;;;;;;;;10.25;9.50;;;;;26.03;46.88;100879.19;5068555;28;46836;-66
2023/09/09 03:29:50;;;;;;;;;10.75;10.00;;;;;26.02;46.62;100874.81;5075111;27;45343;-67
2023/09/09 03:32:15;;;;;;;;;12.75;10.75;;;;;26.01;47.12;100876.66;5057714;28;46874;-66
2023/09/09 03:34:41;;;;;;;;;11.25;9.00;;;;;25.99;46.76;100867.88;5075817;27;61513;-66
2023/09/09 03:37:06;;;;;;;;;13.50;9.25;;;;;25.98;46.76;100868.06;5076686;28;46065;-66
2023/09/09 03:39:32;;;;;;;;;12.50;11.50;;;;;25.96;47.05;100868.19;5086107;27;46025;-66
2023/09/09 03:41:57;;;;;;;;;12.00;10.75;;;;;25.96;46.68;100865.50;5072846;27;62640;-66
2023/09/09 03:44:22;;;;;;;;;10.50;10.50;;;;;25.94;47.31;100876.38;5073356;28;67007;-66
2023/09/09 03:46:48;;;;;;;;;12.00;11.00;;;;;25.93;46.94;100868.44;5073863;28;56078;-66
2023/09/09 03:49:14;;;;;;;;;11.75;9.00;;;;;25.91;46.99;100867.72;5074934;28;45317;-66
2023/09/09 03:51:39;;;;;;;;;13.25;10.00;;;;;25.89;47.06;100872.38;5076316;28;45527;-65
2023/09/09 03:54:05;;;;;;;;;14.00;10.25;;;;;25.89;47.32;100875.91;5066183;28;59156;-65
2023/09/09 03:56:30;;;;;;;;;13.50;9.75;;;;;25.87;47.27;100882.38;5085373;27;48249;-66
2023/09/09 03:58:56;;;;;;;;;12.00;10.00;;;;;25.82;47.31;100872.06;5052082;28;51251;-66
2023/09/09 04:01:21;;;;;;;;;9.50;8.75;;;;;25.85;47.28;100877.16;5070234;28;68480;-66
2023/09/09 04:03:46;;;;;;;;;11.00;9.50;;;;;25.81;47.34;100873.03;5071938;28;45227;-66
2023/09/09 04:06:12;;;;;;;;;14.75;11.25;;;;;25.84;47.93;100879.97;5078366;27;64884;-66
2023/09/09 04:08:39;;;;;;;;;11.25;7.50;;;;;25.82;47.57;100880.13;5079257;28;45238;-66
2023/09/09 04:11:04;;;;;;;;;11.00;10.00;;;;;25.81;48.08;100883.78;5070915;28;45277;-66
2023/09/09 04:13:30;;;;;;;;;11.25;10.50;;;;;25.79;47.88;100880.38;5067138;28;63704;-67
2023/09/09 04:15:57;;;;;;;;;12.75;12.00;;;;;25.79;47.54;100882.22;5070198;28;45521;-66
2023/09/09 04:18:23;;;;;;;;;14.00;11.00;;;;;25.79;47.46;100887.59;5082144;27;45697;-66
2023/09/09 04:20:49;;;;;;;;;10.75;8.50;;;;;25.76;47.85;100881.50;5073377;28;45683;-66
2023/09/09 04:23:16;;;;;;;;;9.25;5.75;;;;;25.74;47.68;100887.97;5073320;28;45522;-67
2023/09/09 04:25:43;;;;;;;;;11.25;9.50;;;;;25.72;47.96;100888.13;5071530;28;45277;-67
2023/09/09 04:28:10;;;;;;;;;9.75;9.25;;;;;25.70;47.73;100886.56;5077237;28;45418;-66
2023/09/09 04:30:36;;;;;;;;;11.00;11.00;;;;;25.69;47.90;100890.22;5079004;28;45600;-66
2023/09/09 04:33:02;;;;;;;;;10.00;8.25;;;;;25.66;48.13;100880.63;5079313;28;45693;-67
2023/09/09 04:35:27;;;;;;;;;11.75;7.75;;;;;25.66;48.18;100885.16;5075937;28;47022;-67
2023/09/09 04:37:53;;;;;;;;;16.00;12.00;;;;;25.64;48.10;100881.72;5079297;28;73109;-66
2023/09/09 04:40:19;;;;;;;;;11.25;10.75;;;;;25.61;48.12;100880.19;5068349;28;67005;-66
2023/09/09 04:42:44;;;;;;;;;16.50;10.75;;;;;25.60;48.43;100883.00;5071682;28;45394;-67
2023/09/09 04:45:10;;;;;;;;;9.75;8.75;;;;;25.60;48.45;100889.19;5066332;28;71979;-66
2023/09/09 04:47:35;;;;;;;;;12.25;11.25;;;;;25.58;48.14;100881.28;5067950;27;45418;-66
2023/09/09 04:50:00;;;;;;;;;10.50;10.25;;;;;25.56;48.86;100883.25;5079002;28;45294;-66
2023/09/09 04:52:26;;;;;;;;;16.75;11.25;;;;;25.56;48.41;100885.94;5076164;28;52570;-66
2023/09/09 04:54:51;;;;;;;;;11.00;9.75;;;;;25.53;48.52;100885.38;5071421;28;45476;-66
2023/09/09 04:57:17;;;;;;;;;14.00;12.75;;;;;25.54;48.80;100884.41;5062536;28;71702;-66
2023/09/09 04:59:42;;;;;;;;;10.00;8.25;;;;;25.52;48.78;100881.84;5071780;28;45469;-65
2023/09/09 05:02:08;;;;;;;;;10.25;9.50;;;;;25.50;48.71;100881.13;5075952;28;45480;-66
2023/09/09 05:04:33;;;;;;;;;14.50;10.50;;;;;25.49;48.66;100892.81;5073274;28;58259;-65
2023/09/09 05:06:59;;;;;;;;;15.50;10.00;;;;;25.48;48.97;100885.78;5087535;27;45476;-66
2023/09/09 05:09:24;;;;;;;;;10.50;8.50;;;;;25.46;48.71;100890.44;5072693;28;45494;-66
2023/09/09 05:11:49;;;;;;;;;10.75;10.00;;;;;25.45;49.08;100891.41;5088924;27;45438;-66
2023/09/09 05:14:15;;;;;;;;;11.50;9.25;;;;;25.44;49.17;100897.75;5063585;28;69099;-66
2023/09/09 05:16:40;;;;;;;;;16.75;11.75;;;;;25.41;49.27;100895.34;5076689;28;45408;-66
2023/09/09 05:19:06;;;;;;;;;11.50;10.00;;;;;25.40;49.52;100893.63;5074051;28;45741;-66
2023/09/09 05:21:31;;;;;;;;;15.25;10.25;;;;;25.40;49.26;100890.97;5070338;28;62709;-66
2023/09/09 05:23:56;;;;;;;;;13.50;10.00;;;;;25.39;50.00;100890.13;5070311;28;67985;-66
2023/09/09 05:26:22;;;;;;;;;14.00;13.00;;;;;25.38;49.56;100895.59;5062237;28;45319;-66
2023/09/09 05:28:50;;;;;;;;;13.50;11.00;;;;;25.37;50.01;100894.78;5070990;28;45462;-66
2023/09/09 05:31:16;;;;;;;;;13.00;9.50;;;;;25.33;49.76;100890.63;5069162;28;45561;-66
2023/09/09 05:33:41;;;;;;;;;10.75;10.50;;;;;25.33;49.66;100895.16;5070622;28;45523;-66
2023/09/09 05:36:07;;;;;;;;;13.00;9.25;;;;;25.33;49.89;100893.31;5070730;28;45462;-66
2023/09/09 05:38:32;;;;;;;;;14.75;12.00;;;;;25.32;49.94;100897.00;5076673;28;45219;-66
2023/09/09 05:40:57;;;;;;;;;15.75;12.75;;;;;25.32;49.64;100891.63;5071807;28;45279;-66
2023/09/09 05:43:23;;;;;;;;;12.75;11.50;;;;;25.31;49.64;100902.47;5076027;28;45177;-67
2023/09/09 05:45:48;;;;;;;;;14.25;11.00;;;;;25.31;49.93;100903.31;5065950;28;71666;-66
2023/09/09 05:48:13;;;;;;;;;20.25;14.25;;;;;25.32;49.73;100904.16;5070422;28;45358;-67
2023/09/09 05:50:39;;;;;;;;;12.75;11.00;;;;;25.29;49.76;100913.31;5071811;28;56693;-67
2023/09/09 05:53:05;;;;;;;;;11.00;11.00;;;;;25.33;50.24;100913.91;5066509;28;47062;-69
2023/09/09 05:55:30;;;;;;;;;9.75;9.50;;;;;25.34;49.90;100916.47;5065632;28;71366;-69
2023/09/09 05:57:55;;;;;;;;;12.75;10.50;;;;;25.35;49.82;100919.97;5074134;28;45326;-69
2023/09/09 06:00:21;;;;;;;;;12.50;10.25;;;;;25.36;50.28;100921.69;5060727;28;72252;-69
2023/09/09 06:02:46;;;;;;;;;13.75;12.75;;;;;25.38;49.88;100917.88;5069590;28;65888;-69
2023/09/09 06:05:13;;;;;;;;;11.50;10.50;;;;;25.38;49.95;100915.19;5072442;28;57624;-69
2023/09/09 06:07:39;;;;;;;;;14.75;10.75;;;;;25.42;49.95;100921.13;5051970;28;45370;-69
2023/09/09 06:10:05;;;;;;;;;11.25;9.00;;;;;25.44;49.88;100919.19;5074251;28;45698;-69
2023/09/09 06:12:30;;;;;;;;;10.25;9.75;;;;;25.47;50.33;100923.44;5074282;28;46728;-69
2023/09/09 06:14:55;;;;;;;;;13.00;9.50;;;;;25.48;50.30;100915.25;5069520;28;72735;-68
2023/09/09 06:17:21;;;;;;;;;11.25;10.25;;;;;25.50;49.99;100918.66;5076999;27;45410;-68
2023/09/09 06:19:46;;;;;;;;;12.00;9.00;;;;;25.51;50.58;100917.66;5062267;28;73739;-68
2023/09/09 06:22:11;;;;;;;;;10.50;9.50;;;;;25.55;50.15;100923.59;5078999;28;53254;-69
2023/09/09 06:24:37;;;;;;;;;15.00;10.50;;;;;25.56;50.09;100925.31;5076201;28;45300;-68
2023/09/09 06:27:02;;;;;;;;;16.00;9.00;;;;;25.57;50.26;100919.81;5073216;28;45249;-68
2023/09/09 06:29:29;;;;;;;;;16.75;10.25;;;;;25.60;49.99;100932.09;5052981;28;45600;-68
2023/09/09 06:31:54;;;;;;;;;86.50;68.00;;;;;25.64;50.27;100929.97;5079526;28;45633;-69
2023/09/09 06:34:20;;;;;;;;;37.50;26.25;;;;;25.65;50.30;100926.31;5073729;28;45404;-68
2023/09/09 06:36:45;;;;;;;;;31.50;26.50;;;;;25.67;49.83;100935.06;5081826;28;45425;-68
2023/09/09 06:39:10;;;;;;;;;10.00;10.00;;;;;25.71;49.97;100940.06;5078744;28;58588;-68
2023/09/09 06:41:36;;;;;;;;;14.75;12.50;;;;;25.75;49.88;100936.09;5077828;27;45410;-67
2023/09/09 06:44:01;;;;;;;;;13.00;12.50;;;;;25.75;50.08;100928.06;5069068;28;63713;-68
2023/09/09 06:46:26;;;;;;;;;16.75;13.00;;;;;25.76;49.96;100943.19;5077917;27;45441;-70
2023/09/09 06:48:52;;;;;;;;;17.25;10.50;;;;;25.82;50.26;100933.72;5078232;28;57482;-66
2023/09/09 06:51:17;;;;;;;;;10.25;10.25;;;;;25.86;49.72;100931.63;5073245;28;60234;-67
2023/09/09 06:53:42;;;;;;;;;16.25;11.25;;;;;25.88;50.07;100935.03;5074523;28;45348;-66
2023/09/09 06:56:08;;;;;;;;;14.50;9.00;;;;;25.91;50.06;100937.44;5079203;27;45487;-67
2023/09/09 06:58:33;;;;;;;;;10.50;8.25;;;;;25.93;50.13;100936.34;5065177;28;45425;-67
2023/09/09 07:00:58;;;;;;;;;11.50;9.50;;;;;25.96;49.77;100935.22;5078975;28;46175;-69
2023/09/09 07:03:24;;;;;;;;;12.50;10.50;;;;;25.97;49.47;100944.13;5073168;28;62172;-67
2023/09/09 07:05:49;;;;;;;;;11.75;10.00;;;;;26.00;49.97;100938.47;5068564;28;61746;-67
2023/09/09 07:08:15;;;;;;;;;23.75;19.75;;;;;26.03;49.76;100938.19;5066447;28;45348;-65
2023/09/09 07:10:51;;;;;;;;;24.75;18.75;;;;;26.05;49.19;100939.75;5076537;28;46316;-65
2023/09/09 07:13:16;;;;;;;;;7.25;6.75;;;;;26.08;49.11;100944.00;5079232;28;45470;-66
2023/09/09 07:15:42;;;;;;;;;38.25;31.25;;;;;26.08;49.72;100934.13;5072626;28;45537;-64
2023/09/09 07:18:07;;;;;;;;;17.50;15.00;;;;;26.11;49.15;100935.69;5067655;28;57717;-65
2023/09/09 07:20:32;;;;;;;;;13.25;8.50;;;;;26.12;49.57;100938.22;5072515;28;63093;-65
2023/09/09 07:22:58;;;;;;;;;10.75;8.00;;;;;26.13;49.29;100941.75;5064097;28;45241;-65
2023/09/09 07:25:23;;;;;;;;;10.25;8.00;;;;;26.15;48.99;100939.78;5081421;27;45403;-76
2023/09/09 07:27:48;;;;;;;;;11.00;10.25;;;;;26.13;49.20;100939.94;5070377;28;45525;-71
2023/09/09 07:30:14;;;;;;;;;9.25;3.75;;;;;26.17;49.07;100945.00;5069788;28;46586;-67
2023/09/09 07:32:39;;;;;;;;;9.75;7.00;;;;;26.18;48.61;100941.34;5084414;27;45284;-70
2023/09/09 07:35:05;;;;;;;;;8.75;7.50;;;;;26.21;48.90;100944.59;5072813;28;57298;-67
2023/09/09 07:37:30;;;;;;;;;6.75;5.75;;;;;26.23;48.56;100945.31;5077572;27;45905;-66
2023/09/09 07:39:58;;;;;;;;;6.00;6.00;;;;;26.24;48.61;100933.59;5068470;28;68460;-66
2023/09/09 07:42:23;;;;;;;;;9.75;8.25;;;;;26.28;48.85;100936.84;5072879;28;45456;-66
2023/09/09 07:44:49;;;;;;;;;10.00;7.00;;;;;26.30;48.91;100937.56;5070071;28;55488;-66
2023/09/09 07:47:14;;;;;;;;;15.25;9.00;;;;;26.33;48.35;100943.50;5076178;28;45248;-66
2023/09/09 07:49:39;;;;;;;;;14.00;9.00;;;;;26.37;48.20;100954.78;5073036;27;67914;-68
2023/09/09 07:52:05;;;;;;;;;10.75;8.00;;;;;26.39;48.76;100950.13;5066393;28;45386;-73
2023/09/09 07:54:31;;;;;;;;;13.75;10.75;;;;;26.43;48.24;100948.84;5075392;28;45339;-70
2023/09/09 07:57:01;;;;;;;;;10.00;8.50;;;;;26.46;48.52;100947.75;5074997;28;45453;-74
2023/09/09 07:59:28;;;;;;;;;8.75;8.25;;;;;26.50;48.76;100947.31;5052281;28;47506;-78
2023/09/09 08:01:54;;;;;;;;;11.75;9.00;;;;;26.52;48.42;100950.72;5057303;28;45691;-68
2023/09/09 08:04:19;;;;;;;;;11.75;10.50;;;;;26.55;48.22;100954.94;5070935;28;45413;-67
2023/09/09 08:06:46;;;;;;;;;10.75;10.75;;;;;26.57;48.36;100955.66;5070983;28;63255;-67
2023/09/09 08:09:11;;;;;;;;;13.25;8.75;;;;;26.58;48.54;100943.94;5075698;28;48263;-67
2023/09/09 08:11:36;;;;;;;;;10.00;8.00;;;;;26.63;48.50;100943.53;5070862;28;65753;-68
2023/09/09 08:14:02;;;;;;;;;7.75;7.75;;;;;26.65;47.93;100944.28;5052523;28;45179;-68
2023/09/09 08:16:27;;;;;;;;;12.50;10.00;;;;;26.68;48.32;100958.25;5076369;28;45323;-67
2023/09/09 08:18:52;;;;;;;;;17.75;12.75;;;;;26.71;48.15;100955.25;5066977;28;68377;-67
2023/09/09 08:21:18;;;;;;;;;11.00;9.00;;;;;26.76;48.04;100946.78;5048644;28;45241;-68
2023/09/09 08:23:43;;;;;;;;;12.00;9.25;;;;;26.81;47.53;100955.28;5081273;27;53931;-67
2023/09/09 08:26:11;;;;;;;;;11.00;10.00;;;;;26.85;47.81;100962.06;5065332;28;71228;-67
2023/09/09 08:28:36;;;;;;;;;14.00;9.00;;;;;26.89;47.26;100958.09;5065870;28;45486;-67
2023/09/09 08:31:02;;;;;;;;;9.75;9.50;;;;;26.93;46.78;100952.44;5065936;28;45632;-67
2023/09/09 08:33:28;;;;;;;;;10.25;8.00;;;;;26.95;46.85;100951.31;5065862;28;45465;-67
2023/09/09 08:36:01;;;;;;;;;9.25;7.25;;;;;27.05;46.36;100962.03;5068929;28;45456;-67
2023/09/09 08:38:26;;;;;;;;;11.50;7.25;;;;;27.09;46.41;100967.00;5075787;27;45489;-67
2023/09/09 08:41:04;;;;;;;;;10.25;8.00;;;;;27.13;45.81;100955.94;5051621;28;45455;-66
2023/09/09 08:44:08;;;;;;;;;10.00;9.00;;;;;27.20;46.16;100954.41;5060248;28;45356;-66
2023/09/09 08:46:34;;;;;;;;;11.50;9.75;;;;;27.26;46.41;100957.31;5042479;28;45835;-66
2023/09/09 08:49:02;;;;;;;;;11.00;9.50;;;;;27.32;46.18;100964.03;5060858;28;74989;-66
2023/09/09 08:51:34;;;;;;;;;10.25;8.50;;;;;27.39;46.23;100965.13;5067573;28;45291;-66
2023/09/09 08:54:00;;;;;;;;;11.75;10.50;;;;;27.46;45.71;100960.00;5071997;28;45307;-66
2023/09/09 08:56:25;;;;;;;;;13.50;9.00;;;;;27.50;45.36;100957.84;5078641;27;66391;-66
2023/09/09 08:58:50;;;;;;;;;15.50;9.00;;;;;27.56;45.55;100954.59;5078744;28;45997;-66
2023/09/09 09:01:17;;;;;;;;;10.25;8.25;;;;;27.63;45.48;100964.59;5075598;28;72199;-66
2023/09/09 09:03:42;;;;;;;;;12.50;10.00;;;;;27.70;45.36;100953.28;5067895;28;45305;-67
2023/09/09 09:06:09;;;;;;;;;13.50;13.00;;;;;27.75;45.54;100965.28;5071638;28;71607;-67
2023/09/09 09:08:34;;;;;;;;;12.50;11.25;;;;;27.82;45.60;100957.47;5059248;28;46311;-67
2023/09/09 09:11:02;;;;;;;;;12.25;9.50;;;;;27.91;45.12;100955.78;5063668;28;52409;-67
2023/09/09 09:13:31;;;;;;;;;13.50;9.25;;;;;27.95;44.81;100951.78;5077145;28;45437;-71
2023/09/09 09:15:56;;;;;;;;;15.00;10.50;;;;;28.03;44.76;100952.72;5078799;28;45407;-68
2023/09/09 09:18:22;;;;;;;;;9.50;7.50;;;;;28.11;44.99;100948.44;5065129;28;72792;-70
2023/09/09 09:20:49;;;;;;;;;11.75;10.50;;;;;28.16;44.56;100956.91;5071469;28;59846;-68
2023/09/09 09:23:14;;;;;;;;;14.00;10.75;;;;;28.22;44.91;100945.50;5071627;28;45682;-68
2023/09/09 09:25:44;;;;;;;;;10.50;8.75;;;;;28.27;44.31;100951.28;5071636;28;55299;-68
2023/09/09 09:28:11;;;;;;;;;13.50;10.75;;;;;28.34;44.28;100954.22;5070883;28;46135;-68
2023/09/09 09:30:36;;;;;;;;;13.00;10.00;;;;;28.38;44.16;100956.47;5066522;28;45189;-67
2023/09/09 09:33:02;;;;;;;;;11.00;10.00;;;;;28.45;44.00;100956.69;5075309;28;68993;-67
2023/09/09 09:35:29;;;;;;;;;13.75;10.50;;;;;28.49;43.68;100952.72;5070045;27;46071;-68
2023/09/09 09:38:05;;;;;;;;;13.50;11.00;;;;;28.59;43.83;100964.25;5070464;28;45424;-68
2023/09/09 09:40:31;;;;;;;;;13.25;11.00;;;;;28.62;43.70;100957.75;5072896;28;46568;-68
2023/09/09 09:42:56;;;;;;;;;12.50;9.75;;;;;28.71;43.74;100953.28;5068969;28;61191;-67
2023/09/09 09:45:26;;;;;;;;;15.00;13.00;;;;;28.76;43.27;100950.97;5078490;28;68137;-67
2023/09/09 09:47:52;;;;;;;;;16.75;12.00;;;;;28.83;42.50;100953.88;5076384;28;45555;-68
2023/09/09 09:50:18;;;;;;;;;14.75;12.25;;;;;28.88;43.04;100955.13;5072209;28;45380;-68
2023/09/09 09:52:48;;;;;;;;;11.25;11.00;;;;;28.94;42.91;100949.09;5072336;28;45729;-69
2023/09/09 09:55:17;;;;;;;;;13.25;11.25;;;;;28.99;42.98;100954.03;5068574;28;45603;-69
2023/09/09 09:57:45;;;;;;;;;13.50;10.25;;;;;29.08;42.49;100957.63;5075730;28;46227;-69
2023/09/09 10:00:12;;;;;;;;;11.25;10.50;;;;;29.12;42.45;100948.22;5072904;28;45824;-69
2023/09/09 10:02:40;;;;;;;;;11.25;10.50;;;;;29.21;42.22;100957.22;5054430;28;45438;-69
2023/09/09 10:05:08;;;;;;;;;12.25;9.25;;;;;29.24;42.12;100949.69;5078754;28;45402;-69
2023/09/09 10:07:35;;;;;;;;;12.50;12.50;;;;;29.32;41.93;100960.53;5056273;28;46373;-69
2023/09/09 10:10:07;;;;;;;;;13.75;10.75;;;;;29.39;41.98;100949.09;5055010;28;45278;-69
2023/09/09 10:12:43;;;;;;;;;12.75;12.50;;;;;29.45;42.20;100954.69;5081351;28;45527;-69
2023/09/09 10:15:09;;;;;;;;;13.75;11.00;;;;;29.53;42.08;100953.88;5075268;28;45373;-69
2023/09/09 10:17:35;;;;;;;;;12.25;10.25;;;;;29.61;41.66;100955.81;5075720;28;45970;-71
2023/09/09 10:20:01;;;;;;;;;13.00;8.50;;;;;29.67;41.47;100953.28;5056872;28;45785;-69
2023/09/09 10:22:27;;;;;;;;;15.25;12.25;;;;;29.75;41.38;100948.94;5063832;28;45418;-69
2023/09/09 10:24:52;;;;;;;;;13.50;10.50;;;;;29.80;41.29;100944.78;5063634;28;60623;-68
2023/09/09 10:27:19;;;;;;;;;13.25;11.50;;;;;29.84;40.43;100943.47;5072818;27;74484;-68
2023/09/09 10:29:46;;;;;;;;;13.00;11.75;;;;;29.89;40.59;100946.50;5074994;27;45376;-68
2023/09/09 10:32:12;;;;;;;;;15.25;11.50;;;;;29.94;40.42;100939.78;5080350;27;45396;-68
2023/09/09 10:34:38;;;;;;;;;12.00;10.75;;;;;30.03;40.57;100949.56;5068635;27;71003;-69
2023/09/09 10:37:04;;;;;;;;;13.25;13.00;;;;;30.09;40.45;100938.16;5067838;27;75733;-68
2023/09/09 10:39:30;;;;;;;;;17.25;12.00;;;;;30.14;40.42;100941.19;5069218;28;45390;-67
2023/09/09 10:41:57;;;;;;;;;10.50;10.25;;;;;30.21;40.45;100938.69;5080591;27;45315;-68
2023/09/09 10:44:22;;;;;;;;;15.75;13.00;;;;;30.27;39.78;100940.72;5072564;28;53664;-68
2023/09/09 10:46:53;;;;;;;;;17.00;11.50;;;;;30.33;39.61;100936.50;5074814;28;46167;-68
2023/09/09 10:49:23;;;;;;;;;13.00;10.75;;;;;30.40;39.72;100926.75;5078223;27;45417;-68
2023/09/09 10:51:50;;;;;;;;;11.50;9.00;;;;;30.47;39.47;100930.47;5051180;28;45292;-68
2023/09/09 10:54:17;;;;;;;;;12.50;11.75;;;;;30.54;39.45;100930.66;5069355;28;45503;-67
2023/09/09 10:56:53;;;;;;;;;10.75;10.25;;;;;30.62;39.44;100931.50;5069599;28;45341;-68
2023/09/09 10:59:28;;;;;;;;;9.00;7.75;;;;;30.72;39.13;100925.97;5088585;27;45674;-67
2023/09/09 11:02:18;;;;;;;;;11.75;10.00;;;;;30.80;39.15;100917.00;5070763;28;45443;-68
2023/09/09 11:04:57;;;;;;;;;14.25;13.00;;;;;30.89;39.20;100921.38;5067587;28;45488;-67
2023/09/09 11:07:22;;;;;;;;;12.75;9.50;;;;;30.95;38.88;100917.16;5077702;28;46840;-68